sensor_id;sensor_type;location;lat;lon;timestamp;temperature;humidity
31687;DHT22;18285;51.330;4.946;2022-09-09T00:19:28;25.80;48.10
31687;DHT22;18285;51.330;4.946;2022-09-09T00:43:54;25.80;47.70
31687;DHT22;18285;51.330;4.946;2022-09-09T01:32:50;25.70;47.60
31687;DHT22;18285;51.330;4.946;2022-09-09T01:57:54;25.80;47.50
31687;DHT22;18285;51.330;4.946;2022-09-09T02:21:45;25.80;47.40
31687;DHT22;18285;51.330;4.946;2022-09-09T03:10:48;25.80;47.20
31687;DHT22;18285;51.330;4.946;2022-09-09T03:34:59;25.70;47.30
31687;DHT22;18285;51.330;4.946;2022-09-09T03:59:10;25.70;47.30
31687;DHT22;18285;51.330;4.946;2022-09-09T04:23:21;25.70;47.20
31687;DHT22;18285;51.330;4.946;2022-09-09T04:47:32;25.70;47.30
31687;DHT22;18285;51.330;4.946;2022-09-09T05:11:42;25.70;47.40
31687;DHT22;18285;51.330;4.946;2022-09-09T05:36:01;25.70;47.30
31687;DHT22;18285;51.330;4.946;2022-09-09T06:00:13;25.30;47.80
31687;DHT22;18285;51.330;4.946;2022-09-09T06:24:25;25.30;48.10
31687;DHT22;18285;51.330;4.946;2022-09-09T06:48:36;25.40;48.00
31687;DHT22;18285;51.330;4.946;2022-09-09T07:12:51;25.50;47.90
31687;DHT22;18285;51.330;4.946;2022-09-09T07:37:02;25.60;48.00
31687;DHT22;18285;51.330;4.946;2022-09-09T08:01:19;25.60;48.20
31687;DHT22;18285;51.330;4.946;2022-09-09T08:25:30;25.60;48.10
31687;DHT22;18285;51.330;4.946;2022-09-09T09:14:21;25.60;48.10
31687;DHT22;18285;51.330;4.946;2022-09-09T09:38:34;25.60;48.00
31687;DHT22;18285;51.330;4.946;2022-09-09T10:02:46;25.60;48.00
31687;DHT22;18285;51.330;4.946;2022-09-09T10:27:11;25.70;48.40
31687;DHT22;18285;51.330;4.946;2022-09-09T11:15:46;25.60;48.70
31687;DHT22;18285;51.330;4.946;2022-09-09T11:40:29;25.60;48.70
31687;DHT22;18285;51.330;4.946;2022-09-09T12:05:00;25.70;49.10
31687;DHT22;18285;51.330;4.946;2022-09-09T12:53:39;25.60;49.10
31687;DHT22;18285;51.330;4.946;2022-09-09T13:17:52;25.70;49.40
31687;DHT22;18285;51.330;4.946;2022-09-09T13:42:05;25.70;49.20
31687;DHT22;18285;51.330;4.946;2022-09-09T14:06:17;25.60;48.90
31687;DHT22;18285;51.330;4.946;2022-09-09T14:30:29;25.60;48.80
31687;DHT22;18285;51.330;4.946;2022-09-09T14:54:39;25.70;48.60
31687;DHT22;18285;51.330;4.946;2022-09-09T15:18:52;25.70;48.70
31687;DHT22;18285;51.330;4.946;2022-09-09T15:43:05;25.60;48.60
31687;DHT22;18285;51.330;4.946;2022-09-09T16:07:16;25.70;48.30
31687;DHT22;18285;51.330;4.946;2022-09-09T16:31:28;25.60;48.90
31687;DHT22;18285;51.330;4.946;2022-09-09T16:55:40;25.20;51.00
31687;DHT22;18285;51.330;4.946;2022-09-09T17:19:51;25.30;51.00
31687;DHT22;18285;51.330;4.946;2022-09-09T17:44:02;25.40;51.60
31687;DHT22;18285;51.330;4.946;2022-09-09T18:08:14;25.30;52.10
31687;DHT22;18285;51.330;4.946;2022-09-09T18:32:24;25.10;52.40
31687;DHT22;18285;51.330;4.946;2022-09-09T18:56:36;24.90;52.70
31687;DHT22;18285;51.330;4.946;2022-09-09T19:20:47;24.70;53.40
31687;DHT22;18285;51.330;4.946;2022-09-09T19:44:57;24.70;53.40
31687;DHT22;18285;51.330;4.946;2022-09-09T20:09:11;24.60;53.20
31687;DHT22;18285;51.330;4.946;2022-09-09T20:33:25;24.80;52.60
31687;DHT22;18285;51.330;4.946;2022-09-09T20:57:36;25.00;51.80
31687;DHT22;18285;51.330;4.946;2022-09-09T21:21:47;25.10;51.20
31687;DHT22;18285;51.330;4.946;2022-09-09T21:45:58;25.10;51.00
31687;DHT22;18285;51.330;4.946;2022-09-09T22:10:09;25.20;50.70
31687;DHT22;18285;51.330;4.946;2022-09-09T22:34:22;25.20;50.70
31687;DHT22;18285;51.330;4.946;2022-09-09T22:58:35;25.20;50.20
31687;DHT22;18285;51.330;4.946;2022-09-09T23:22:46;25.20;49.90
31687;DHT22;18285;51.330;4.946;2022-09-09T23:46:56;25.20;49.90
